Time;durP1;ratioP1;P1;durP2;ratioP2;P2;SDS_P1;SDS_P2;PMS_P1;PMS_P2;Temp;Humidity;BMP_temperature;BMP_pressure;BME280_temperature;BME280_humidity;BME280_pressure;Samples;Min_cycle;Max_cycle;Signal;HPM_P1;HPM_P2
2023/01/29 00:01:58;;;;;;;19.00;10.40;;;;;;;-2.97;98.64;97390.28;108875;1272;24225;-77
2023/01/29 00:04:30;;;;;;;21.20;11.60;;;;;;;-2.97;98.90;97389.96;108853;1272;22503;-78
2023/01/29 00:07:01;;;;;;;18.40;11.20;;;;;;;-2.96;98.94;97388.98;108866;1265;24164;-77
2023/01/29 00:09:35;;;;;;;23.00;13.60;;;;;;;-2.98;98.75;97383.05;108869;1265;25421;-78
2023/01/29 00:12:07;;;;;;;25.20;13.30;;;;;;;-2.97;98.92;97375.08;108858;1265;25633;-78
2023/01/29 00:14:38;;;;;;;18.00;11.10;;;;;;;-2.98;98.94;97370.96;108829;1272;25300;-78
2023/01/29 00:17:10;;;;;;;20.20;11.60;;;;;;;-2.97;98.93;97372.25;108850;1268;22587;-77
2023/01/29 00:19:42;;;;;;;20.20;10.30;;;;;;;-2.94;99.02;97372.31;108877;1266;24242;-78
2023/01/29 00:22:13;;;;;;;20.60;11.70;;;;;;;-2.93;99.11;97379.40;108871;1260;22598;-78
2023/01/29 00:24:44;;;;;;;21.80;12.10;;;;;;;-2.90;99.18;97384.31;108840;1265;22518;-77
2023/01/29 00:27:16;;;;;;;19.30;11.70;;;;;;;-2.89;98.99;97388.29;108864;1265;22513;-78
2023/01/29 00:30:07;;;;;;;23.10;13.70;;;;;;;-2.88;99.11;97392.69;108842;1265;24810;-78
2023/01/29 00:32:38;;;;;;;29.80;16.20;;;;;;;-2.89;99.16;97394.55;108859;1272;22538;-77
2023/01/29 00:35:14;;;;;;;22.30;13.30;;;;;;;-2.89;99.37;97395.42;108859;1264;22530;-78
2023/01/29 00:37:45;;;;;;;23.00;12.90;;;;;;;-2.87;99.44;97394.81;108863;1265;22620;-77
2023/01/29 00:40:17;;;;;;;24.30;13.00;;;;;;;-2.86;99.47;97395.23;108843;1264;22514;-78
2023/01/29 00:45:37;;;;;;;14.80;8.40;;;;;;;-2.85;99.33;97398.11;109152;1265;23370;-78
2023/01/29 00:48:08;;;;;;;25.90;12.90;;;;;;;-2.87;99.48;97395.57;109252;1271;25885;-77
2023/01/29 00:50:39;;;;;;;23.20;13.40;;;;;;;-2.89;99.69;97397.89;109174;1272;22602;-78
2023/01/29 00:53:11;;;;;;;26.80;15.00;;;;;;;-2.91;99.92;97393.95;109164;1272;22584;-78
2023/01/29 00:55:42;;;;;;;23.90;13.20;;;;;;;-2.92;99.84;97397.30;108853;1265;22523;-78
2023/01/29 00:58:14;;;;;;;24.00;13.50;;;;;;;-2.92;99.87;97398.41;108816;1268;22537;-77
2023/01/29 01:00:45;;;;;;;21.30;12.80;;;;;;;-2.92;99.96;97396.33;108820;1272;22535;-78
2023/01/29 01:03:17;;;;;;;22.40;12.60;;;;;;;-2.93;100.00;97393.64;108845;1272;23798;-78
2023/01/29 01:05:48;;;;;;;19.90;12.40;;;;;;;-2.94;100.00;97387.85;108846;1266;23264;-78
2023/01/29 01:11:08;;;;;;;21.00;12.50;;;;;;;-2.95;100.00;97388.17;108829;1265;22626;-77
2023/01/29 01:13:39;;;;;;;17.30;10.20;;;;;;;-2.96;100.00;97391.20;108840;1271;22635;-78
2023/01/29 01:16:13;;;;;;;20.90;11.70;;;;;;;-2.94;100.00;97390.92;108801;1272;22563;-78
2023/01/29 01:18:44;;;;;;;19.70;12.70;;;;;;;-2.91;100.00;97399.82;108802;1272;27474;-78
2023/01/29 01:21:16;;;;;;;20.20;9.60;;;;;;;-2.89;100.00;97393.52;108838;1266;22655;-77
2023/01/29 01:23:50;;;;;;;24.30;13.10;;;;;;;-2.89;100.00;97389.43;108820;1272;22900;-78
2023/01/29 01:26:23;;;;;;;21.10;12.30;;;;;;;-2.90;100.00;97392.58;108823;1265;24410;-77
2023/01/29 01:28:54;;;;;;;20.80;12.60;;;;;;;-2.90;100.00;97400.33;108850;1268;22548;-77
2023/01/29 01:31:25;;;;;;;18.70;11.60;;;;;;;-2.88;100.00;97400.86;108788;1272;22527;-78
2023/01/29 01:33:59;;;;;;;20.00;11.20;;;;;;;-2.90;100.00;97399.45;108793;1272;24202;-77
2023/01/29 01:36:31;;;;;;;19.80;12.70;;;;;;;-2.89;100.00;97407.36;109154;1271;25731;-77
2023/01/29 01:39:02;;;;;;;20.40;12.40;;;;;;;-2.88;100.00;97403.55;108787;1272;22578;-77
2023/01/29 01:41:33;;;;;;;21.50;13.70;;;;;;;-2.86;100.00;97400.71;108840;1272;22529;-77
2023/01/29 01:44:09;;;;;;;24.70;14.30;;;;;;;-2.88;100.00;97400.86;108839;1265;25315;-77
2023/01/29 01:46:42;;;;;;;21.30;13.00;;;;;;;-2.88;100.00;97400.11;108830;1265;22531;-78
2023/01/29 01:49:20;;;;;;;21.60;13.00;;;;;;;-2.86;100.00;97401.07;108804;1266;22520;-77
2023/01/29 01:51:52;;;;;;;21.90;13.40;;;;;;;-2.84;100.00;97397.02;108844;1265;23489;-77
2023/01/29 01:54:29;;;;;;;23.20;14.20;;;;;;;-2.83;100.00;97395.36;108831;1265;25815;-77
2023/01/29 01:57:14;;;;;;;23.00;13.70;;;;;;;-2.83;100.00;97403.21;108846;1271;39914;-77
2023/01/29 01:59:52;;;;;;;23.00;13.70;;;;;;;-2.82;100.00;97403.08;108839;1272;25302;-77
2023/01/29 02:10:55;;;;;;;18.80;11.70;;;;;;;-2.86;99.95;97413.97;108819;1272;22511;-78
2023/01/29 02:13:26;;;;;;;18.10;11.70;;;;;;;-2.86;99.96;97414.43;108878;1272;22524;-78
2023/01/29 02:15:57;;;;;;;18.80;11.60;;;;;;;-2.85;99.96;97406.15;109169;1272;22526;-78
2023/01/29 02:18:29;;;;;;;19.10;11.30;;;;;;;-2.84;99.96;97399.69;109136;1272;22524;-77
2023/01/29 02:21:27;;;;;;;19.10;11.90;;;;;;;-2.86;99.86;97396.23;109179;1272;23398;-78
2023/01/29 02:24:23;;;;;;;19.50;11.30;;;;;;;-2.86;99.70;97397.17;109183;1265;22529;-78
2023/01/29 02:27:05;;;;;;;18.40;11.40;;;;;;;-2.85;99.64;97401.64;109113;1265;22532;-78
2023/01/29 02:29:52;;;;;;;17.40;11.80;;;;;;;-2.84;99.53;97394.33;109184;1272;22552;-78
2023/01/29 02:32:30;;;;;;;22.50;13.80;;;;;;;-2.86;99.60;97383.98;108586;1272;256557;-78
2023/01/29 02:35:27;;;;;;;24.80;14.10;;;;;;;-2.88;99.73;97369.05;108713;1270;25455;-77
2023/01/29 02:38:09;;;;;;;20.90;12.70;;;;;;;-2.92;99.86;97369.61;108771;1270;25435;-78
2023/01/29 02:40:45;;;;;;;20.90;12.30;;;;;;;-2.94;99.95;97361.62;108764;1272;22632;-78
2023/01/29 02:43:31;;;;;;;24.40;15.50;;;;;;;-2.98;99.90;97358.39;108863;1256;22528;-79
2023/01/29 02:46:11;;;;;;;20.80;12.30;;;;;;;-3.02;100.00;97353.07;109173;1264;22572;-78
2023/01/29 02:48:49;;;;;;;20.00;10.80;;;;;;;-3.03;99.95;97347.30;109157;1272;22511;-78
2023/01/29 02:51:30;;;;;;;18.60;11.20;;;;;;;-3.05;100.00;97348.04;108822;1272;23934;-78
2023/01/29 02:54:04;;;;;;;21.40;13.80;;;;;;;-3.04;100.00;97349.91;109168;1272;22517;-78
2023/01/29 02:56:41;;;;;;;21.90;12.70;;;;;;;-3.05;100.00;97343.56;109103;1272;24295;-78
2023/01/29 02:59:17;;;;;;;21.70;13.10;;;;;;;-3.05;99.97;97345.28;109189;1263;22585;-78
2023/01/29 03:01:53;;;;;;;19.30;12.30;;;;;;;-3.05;99.89;97345.80;109139;1272;22457;-79
2023/01/29 03:04:31;;;;;;;19.90;10.50;;;;;;;-3.04;99.99;97346.73;109126;1268;22582;-78
2023/01/29 03:07:08;;;;;;;16.80;10.80;;;;;;;-3.03;99.84;97345.95;109105;1272;24945;-78
2023/01/29 03:09:48;;;;;;;19.00;11.80;;;;;;;-3.03;99.67;97344.72;109148;1249;22561;-78
2023/01/29 03:12:32;;;;;;;16.40;10.80;;;;;;;-3.03;99.32;97346.98;109179;1267;24087;-78
2023/01/29 03:15:15;;;;;;;19.30;11.20;;;;;;;-3.03;99.16;97349.78;109148;1272;23451;-78
2023/01/29 03:17:53;;;;;;;19.70;11.00;;;;;;;-3.05;99.12;97356.94;109120;1272;24014;-78
2023/01/29 03:20:28;;;;;;;21.00;9.20;;;;;;;-3.06;99.22;97361.52;109132;1272;22518;-78
2023/01/29 03:23:04;;;;;;;19.70;11.60;;;;;;;-3.09;99.13;97358.89;109156;1272;22720;-78
2023/01/29 03:34:15;;;;;;;21.70;12.70;;;;;;;-3.11;98.73;97368.14;109128;1270;25424;-79
2023/01/29 03:36:54;;;;;;;19.20;10.90;;;;;;;-3.10;98.71;97369.63;109111;1272;24794;-78
2023/01/29 03:39:26;;;;;;;;;;;;;;;-3.15;98.56;97374.14;109206;1265;25247;-78
2023/01/29 03:42:10;;;;;;;19.10;11.20;;;;;;;-3.18;98.58;97378.64;109156;1272;25912;-78
2023/01/29 03:44:53;;;;;;;20.20;12.20;;;;;;;-3.21;98.51;97367.20;109090;1272;24395;-78
2023/01/29 03:47:34;;;;;;;16.80;10.60;;;;;;;-3.21;98.35;97370.54;109142;1272;22527;-78
2023/01/29 03:50:12;;;;;;;19.10;11.90;;;;;;;-3.24;98.33;97364.05;109193;1272;25973;-78
2023/01/29 03:52:48;;;;;;;20.00;12.00;;;;;;;-3.24;98.29;97362.52;109161;1266;23294;-78
2023/01/29 03:55:32;;;;;;;13.30;6.20;;;;;;;-3.25;98.27;97361.08;109152;1272;22686;-78
2023/01/29 03:58:14;;;;;;;15.30;10.20;;;;;;;-3.27;98.03;97369.30;109152;1265;22878;-78
2023/01/29 04:00:51;;;;;;;17.10;10.20;;;;;;;-3.27;97.98;97369.30;109180;1267;22572;-78
2023/01/29 04:03:27;;;;;;;16.90;10.60;;;;;;;-3.27;97.95;97375.71;109123;1272;22547;-78
2023/01/29 04:06:09;;;;;;;15.40;10.30;;;;;;;-3.27;97.96;97377.10;109147;1265;25350;-79
2023/01/29 04:08:52;;;;;;;14.90;8.00;;;;;;;-3.27;98.02;97375.64;109151;1267;22517;-79
2023/01/29 04:11:25;;;;;;;14.20;8.50;;;;;;;-3.28;97.78;97369.85;109164;1264;23349;-78
2023/01/29 04:13:57;;;;;;;13.20;8.20;;;;;;;-3.28;97.75;97370.46;109144;1272;25421;-78
2023/01/29 04:16:33;;;;;;;17.10;8.90;;;;;;;-3.28;97.34;97365.96;109145;1268;22627;-79
2023/01/29 04:19:05;;;;;;;15.50;9.40;;;;;;;-3.31;97.19;97361.05;109148;1271;22521;-78
2023/01/29 04:21:37;;;;;;;13.10;8.30;;;;;;;-3.32;97.23;97359.97;109204;1271;22619;-78
2023/01/29 04:24:10;;;;;;;14.10;8.50;;;;;;;-3.30;97.51;97354.41;109178;1272;22524;-78
2023/01/29 04:26:55;;;;;;;11.60;7.60;;;;;;;-3.30;97.32;97349.58;109108;1270;25244;-78
2023/01/29 04:29:45;;;;;;;11.20;7.20;;;;;;;-3.33;96.51;97348.11;109165;1272;22554;-78
2023/01/29 04:32:24;;;;;;;11.80;7.70;;;;;;;-3.34;96.43;97342.70;109165;1271;22527;-78
2023/01/29 04:35:04;;;;;;;12.90;6.80;;;;;;;-3.36;96.51;97337.92;109176;1266;22524;-78
2023/01/29 04:37:44;;;;;;;11.50;6.40;;;;;;;-3.39;96.50;97336.50;109171;1272;22672;-78
2023/01/29 04:40:26;;;;;;;13.50;9.40;;;;;;;-3.41;96.42;97339.41;109132;1272;22523;-78
2023/01/29 04:43:10;;;;;;;13.30;7.00;;;;;;;-3.43;96.43;97339.42;109145;1265;26596;-78
2023/01/29 04:45:58;;;;;;;16.40;9.30;;;;;;;-3.44;96.58;97342.86;109137;1272;22525;-78
2023/01/29 04:48:37;;;;;;;18.30;9.40;;;;;;;-3.46;96.70;97354.16;109150;1272;22514;-78
2023/01/29 04:51:18;;;;;;;13.60;7.70;;;;;;;-3.47;96.87;97354.79;109175;1265;22562;-79
2023/01/29 04:53:57;;;;;;;15.20;9.00;;;;;;;-3.49;96.74;97347.19;109134;1272;22601;-79
2023/01/29 04:56:30;;;;;;;;;;;;;;;-3.49;96.63;97352.70;109173;1265;23979;-78
2023/01/29 04:59:05;;;;;;;12.50;5.90;;;;;;;-3.49;96.86;97354.96;109118;1271;22514;-78
2023/01/29 05:01:38;;;;;;;18.40;11.00;;;;;;;-3.51;96.54;97348.17;109155;1265;22549;-78
2023/01/29 05:04:14;;;;;;;17.70;10.70;;;;;;;-3.52;96.25;97345.89;109225;1270;22521;-78
2023/01/29 05:06:46;;;;;;;17.30;9.70;;;;;;;-3.54;96.22;97339.77;109084;1272;22562;-79
2023/01/29 05:09:19;;;;;;;13.40;7.40;;;;;;;-3.53;96.22;97322.83;109123;1272;25917;-78
2023/01/29 05:11:52;;;;;;;15.30;8.90;;;;;;;-3.58;96.10;97317.82;109162;1270;23045;-78
2023/01/29 05:14:27;;;;;;;16.50;10.70;;;;;;;-3.61;96.39;97313.27;109136;1272;24082;-78
2023/01/29 05:17:03;;;;;;;14.60;8.20;;;;;;;-3.60;96.37;97316.15;109121;1272;22566;-79
2023/01/29 05:19:34;;;;;;;16.10;9.40;;;;;;;-3.59;96.51;97312.58;109162;1268;24048;-79
2023/01/29 05:22:11;;;;;;;15.80;9.80;;;;;;;-3.61;96.31;97307.44;109108;1272;22517;-79
2023/01/29 05:24:46;;;;;;;18.40;11.40;;;;;;;-3.62;96.18;97302.40;109142;1268;22626;-78
2023/01/29 05:30:13;;;;;;;20.30;11.40;;;;;;;-3.61;96.41;97298.60;109121;1266;24248;-79
2023/01/29 05:32:45;;;;;;;19.00;11.20;;;;;;;-3.61;96.43;97297.44;109148;1268;22574;-78
2023/01/29 05:35:19;;;;;;;19.10;11.70;;;;;;;-3.63;96.47;97295.70;109169;1266;22569;-79
2023/01/29 05:37:50;;;;;;;20.50;11.90;;;;;;;-3.63;96.55;97298.29;109117;1272;25333;-79
2023/01/29 05:40:21;;;;;;;15.80;10.10;;;;;;;-3.63;96.68;97297.48;109131;1272;22557;-78
2023/01/29 05:42:52;;;;;;;12.70;7.20;;;;;;;-3.64;96.42;97292.73;109125;1272;22533;-79
2023/01/29 05:45:24;;;;;;;11.20;6.50;;;;;;;-3.64;96.09;97292.93;109115;1272;22521;-79
2023/01/29 05:48:00;;;;;;;14.90;9.20;;;;;;;-3.65;95.82;97292.52;109139;1266;37266;-79
2023/01/29 05:50:31;;;;;;;15.70;10.40;;;;;;;-3.64;95.40;97297.39;109079;1272;22555;-79
2023/01/29 05:53:04;;;;;;;16.50;9.20;;;;;;;-3.62;95.13;97300.27;109162;1268;25453;-78
2023/01/29 05:55:35;;;;;;;16.60;9.50;;;;;;;-3.61;94.97;97299.47;109180;1272;22633;-78
2023/01/29 05:58:07;;;;;;;13.90;8.20;;;;;;;-3.61;94.98;97307.27;109135;1272;22560;-78
2023/01/29 06:00:38;;;;;;;13.30;8.00;;;;;;;-3.62;94.94;97310.46;109168;1272;22517;-78
2023/01/29 06:03:10;;;;;;;16.20;9.50;;;;;;;-3.62;95.02;97317.52;109167;1250;23724;-79
2023/01/29 06:05:43;;;;;;;13.30;8.60;;;;;;;-3.61;94.90;97318.30;109166;1272;22562;-79
2023/01/29 06:08:15;;;;;;;14.80;9.80;;;;;;;-3.59;94.89;97320.71;109131;1272;23892;-78
2023/01/29 06:10:47;;;;;;;15.70;8.90;;;;;;;-3.60;94.92;97324.57;109136;1267;22569;-78
2023/01/29 06:13:18;;;;;;;18.60;11.70;;;;;;;-3.61;94.79;97328.83;109135;1269;22560;-78
2023/01/29 06:15:50;;;;;;;16.40;10.50;;;;;;;-3.60;95.04;97334.05;109113;1272;22581;-78
2023/01/29 06:18:21;;;;;;;18.60;12.70;;;;;;;-3.59;95.01;97339.48;109189;1271;25440;-78
2023/01/29 06:20:52;;;;;;;12.40;7.80;;;;;;;-3.60;94.94;97342.94;109152;1272;22687;-79
2023/01/29 06:23:23;;;;;;;17.60;10.60;;;;;;;-3.65;94.73;97346.73;109192;1266;22615;-79
2023/01/29 06:26:01;;;;;;;21.30;12.30;;;;;;;-3.69;94.79;97352.68;109122;1268;24524;-78
2023/01/29 06:28:33;;;;;;;17.40;10.80;;;;;;;-3.69;94.83;97355.67;109191;1272;22515;-78
2023/01/29 06:31:06;;;;;;;17.50;11.20;;;;;;;-3.75;94.85;97354.58;109178;1272;22507;-78
2023/01/29 06:33:38;;;;;;;17.60;11.50;;;;;;;-3.79;94.88;97360.04;109193;1272;25244;-78
2023/01/29 06:36:10;;;;;;;18.10;12.10;;;;;;;-3.80;94.98;97361.23;109105;1272;22566;-78
2023/01/29 06:38:42;;;;;;;20.30;12.20;;;;;;;-3.81;95.07;97362.20;108829;1254;22530;-78
2023/01/29 06:41:16;;;;;;;18.50;11.40;;;;;;;-3.83;94.94;97360.69;108863;1272;22528;-77
2023/01/29 06:43:48;;;;;;;15.20;8.00;;;;;;;-3.88;94.65;97366.35;108832;1267;23897;-78
2023/01/29 06:46:19;;;;;;;17.70;10.90;;;;;;;-3.89;94.38;97366.89;108808;1272;38326;-78
2023/01/29 06:48:50;;;;;;;14.10;9.90;;;;;;;-3.91;94.43;97364.11;109103;1272;26963;-78
2023/01/29 06:51:24;;;;;;;15.60;10.30;;;;;;;-3.90;94.19;97364.40;109119;1268;22558;-78
2023/01/29 06:53:56;;;;;;;13.00;8.40;;;;;;;-3.91;93.85;97367.12;109152;1268;22665;-78
2023/01/29 06:56:27;;;;;;;16.20;9.90;;;;;;;-3.94;93.73;97379.98;109103;1272;22647;-78
2023/01/29 06:59:00;;;;;;;13.90;9.20;;;;;;;-3.96;93.61;97381.91;109184;1272;22564;-78
2023/01/29 07:01:32;;;;;;;16.00;9.80;;;;;;;-3.96;93.65;97373.33;109140;1272;22514;-78
2023/01/29 07:04:03;;;;;;;15.40;8.80;;;;;;;-4.01;93.56;97382.30;109172;1272;22551;-78
2023/01/29 07:06:35;;;;;;;12.40;6.60;;;;;;;-4.04;93.51;97383.86;109103;1268;27340;-78
2023/01/29 07:09:07;;;;;;;11.20;6.10;;;;;;;-4.05;93.36;97386.77;109159;1272;22580;-78
2023/01/29 07:11:39;;;;;;;14.60;9.40;;;;;;;-4.11;92.94;97393.45;109145;1272;23477;-78
2023/01/29 07:14:11;;;;;;;15.70;9.90;;;;;;;-4.12;93.15;97394.80;109192;1272;25268;-78
2023/01/29 07:16:42;;;;;;;10.80;6.70;;;;;;;-4.09;93.15;97395.14;109136;1268;30644;-78
2023/01/29 07:19:13;;;;;;;14.50;9.60;;;;;;;-4.15;92.78;97392.99;109148;1268;24187;-78
2023/01/29 07:21:45;;;;;;;12.00;8.70;;;;;;;-4.19;92.87;97397.38;109157;1272;25564;-78
2023/01/29 07:24:18;;;;;;;13.30;8.80;;;;;;;-4.17;92.87;97399.61;109143;1266;23884;-78
2023/01/29 07:26:50;;;;;;;10.00;5.90;;;;;;;-4.18;92.59;97398.31;109120;1272;22971;-78
2023/01/29 07:29:21;;;;;;;11.00;6.80;;;;;;;-4.23;91.92;97393.05;109204;1265;22518;-78
2023/01/29 07:31:52;;;;;;;11.20;6.40;;;;;;;-4.33;91.29;97387.54;109155;1268;25308;-78
2023/01/29 07:34:23;;;;;;;8.80;5.30;;;;;;;-4.43;90.54;97391.70;109167;1272;22582;-78
2023/01/29 07:36:56;;;;;;;8.30;4.40;;;;;;;-4.52;90.03;97385.27;109173;1272;22530;-77
2023/01/29 07:39:27;;;;;;;10.90;6.10;;;;;;;-4.55;90.13;97380.42;109159;1272;23811;-77
2023/01/29 07:41:59;;;;;;;11.10;6.70;;;;;;;-4.57;90.03;97383.55;109128;1266;22537;-77
2023/01/29 07:44:32;;;;;;;9.90;5.50;;;;;;;-4.57;89.83;97385.35;108829;1272;22540;-77
2023/01/29 07:47:03;;;;;;;5.80;3.80;;;;;;;-4.58;89.57;97389.39;108822;1272;22520;-77
2023/01/29 07:49:34;;;;;;;7.20;4.70;;;;;;;-4.61;88.89;97388.38;108865;1272;23745;-77
2023/01/29 07:52:06;;;;;;;10.20;5.90;;;;;;;-4.67;88.47;97387.42;108803;1272;22636;-77
2023/01/29 07:54:38;;;;;;;10.00;5.30;;;;;;;-4.72;87.99;97386.40;108789;1268;22565;-77
2023/01/29 07:57:09;;;;;;;11.30;5.80;;;;;;;-4.73;87.87;97381.03;108779;1272;22573;-77
2023/01/29 07:59:41;;;;;;;8.90;5.30;;;;;;;-4.74;87.62;97382.52;108877;1272;22536;-78
2023/01/29 08:02:12;;;;;;;9.80;5.90;;;;;;;-4.74;87.40;97393.84;108822;1272;22630;-77
2023/01/29 08:04:46;;;;;;;6.10;3.70;;;;;;;-4.70;87.52;97400.85;108786;1272;24007;-77
2023/01/29 08:07:17;;;;;;;8.40;5.90;;;;;;;-4.67;86.75;97403.42;108836;1272;22517;-77
2023/01/29 08:09:48;;;;;;;6.40;3.10;;;;;;;-4.64;86.20;97408.20;108821;1272;25424;-77
2023/01/29 08:12:20;;;;;;;5.80;4.20;;;;;;;-4.66;85.22;97422.70;109124;1268;22549;-78
2023/01/29 08:14:51;;;;;;;3.70;2.50;;;;;;;-4.66;84.92;97429.16;109145;1272;22633;-78
2023/01/29 08:17:23;;;;;;;3.20;2.10;;;;;;;-4.64;84.29;97441.44;109129;1250;22674;-78
2023/01/29 08:19:54;;;;;;;5.40;3.10;;;;;;;-4.64;83.77;97447.96;109120;1272;22552;-78
2023/01/29 08:22:25;;;;;;;12.20;7.70;;;;;;;-4.64;83.72;97454.36;109150;1265;22557;-78
2023/01/29 08:24:56;;;;;;;4.90;2.90;;;;;;;-4.67;83.46;97449.83;109181;1266;22564;-78
2023/01/29 08:27:27;;;;;;;28.60;12.40;;;;;;;-4.71;83.51;97454.81;109093;1272;22520;-78
2023/01/29 08:29:58;;;;;;;21.70;8.20;;;;;;;-4.73;83.73;97455.85;109170;1272;23841;-78
2023/01/29 08:32:34;;;;;;;10.80;5.30;;;;;;;-4.76;83.47;97464.42;109083;1272;22543;-78
2023/01/29 08:35:09;;;;;;;34.50;13.90;;;;;;;-4.78;83.50;97467.06;109134;1272;22504;-78
2023/01/29 08:37:41;;;;;;;17.10;7.30;;;;;;;-4.77;83.72;97474.05;109125;1268;22519;-78
2023/01/29 08:40:13;;;;;;;12.80;6.60;;;;;;;-4.73;83.45;97481.71;109177;1268;25436;-78
2023/01/29 08:42:44;;;;;;;7.80;3.90;;;;;;;-4.72;83.36;97490.05;109157;1272;24172;-78
2023/01/29 08:45:16;;;;;;;6.60;3.90;;;;;;;-4.70;83.25;97486.08;109114;1272;22557;-78
2023/01/29 08:47:51;;;;;;;32.70;14.60;;;;;;;-4.66;83.67;97494.20;109158;1271;22560;-78
2023/01/29 08:50:22;;;;;;;16.20;8.80;;;;;;;-4.56;83.70;97496.43;109159;1266;24049;-78
2023/01/29 08:52:57;;;;;;;7.20;4.00;;;;;;;-4.50;83.83;97500.65;109109;1272;23102;-78
2023/01/29 08:55:28;;;;;;;11.50;5.80;;;;;;;-4.47;83.48;97508.67;109155;1272;22776;-78
2023/01/29 08:58:00;;;;;;;6.40;4.30;;;;;;;-4.45;83.67;97509.73;109125;1272;25266;-79
2023/01/29 09:00:31;;;;;;;11.10;6.00;;;;;;;-4.28;84.04;97507.92;109123;1272;22541;-78
2023/01/29 09:03:03;;;;;;;7.80;6.20;;;;;;;-3.97;84.28;97502.42;109151;1272;25233;-79
2023/01/29 09:05:34;;;;;;;8.70;5.50;;;;;;;-3.69;84.40;97491.45;109152;1269;22572;-79
2023/01/29 09:08:06;;;;;;;6.10;4.00;;;;;;;-3.52;83.50;97483.35;109122;1272;30762;-79
2023/01/29 09:10:37;;;;;;;15.50;7.20;;;;;;;-3.60;82.57;97476.94;109158;1268;22537;-79
2023/01/29 09:13:08;;;;;;;7.20;4.20;;;;;;;-3.60;82.21;97480.92;109179;1271;22525;-78
2023/01/29 09:15:40;;;;;;;8.20;5.40;;;;;;;-3.60;81.63;97475.52;109134;1272;23727;-79
2023/01/29 09:18:11;;;;;;;11.40;5.90;;;;;;;-3.55;81.21;97484.36;109117;1268;33235;-79
2023/01/29 09:20:43;;;;;;;10.10;6.20;;;;;;;-3.49;81.54;97475.13;109174;1272;23873;-79
2023/01/29 09:23:14;;;;;;;11.60;6.10;;;;;;;-3.48;81.23;97470.32;109136;1272;25413;-79
2023/01/29 09:25:46;;;;;;;10.60;5.60;;;;;;;-3.43;81.34;97465.66;109120;1272;25655;-79
2023/01/29 09:28:17;;;;;;;13.20;7.60;;;;;;;-3.31;81.49;97457.83;109147;1272;22749;-79
2023/01/29 09:30:53;;;;;;;9.20;4.80;;;;;;;-3.27;81.89;97448.27;109144;1272;22633;-79
2023/01/29 09:33:25;;;;;;;11.70;7.00;;;;;;;-3.26;81.17;97449.55;109169;1270;22710;-79
2023/01/29 09:35:56;;;;;;;5.90;3.40;;;;;;;-3.30;81.31;97446.80;109130;1249;22595;-79
2023/01/29 09:38:27;;;;;;;8.00;4.90;;;;;;;-3.35;80.58;97443.63;109179;1272;22530;-79
2023/01/29 09:41:05;;;;;;;12.90;6.70;;;;;;;-3.40;80.55;97445.86;109188;1268;24176;-79
2023/01/29 09:43:45;;;;;;;13.50;5.90;;;;;;;-3.40;80.85;97448.69;109194;1272;23741;-79
2023/01/29 09:46:25;;;;;;;9.60;5.40;;;;;;;-3.32;81.21;97454.34;109119;1272;23963;-79
2023/01/29 09:49:03;;;;;;;8.20;4.80;;;;;;;-3.14;81.76;97446.59;109104;1272;23943;-79
2023/01/29 09:51:40;;;;;;;7.20;4.60;;;;;;;-2.96;81.21;97436.45;109147;1266;22569;-79
2023/01/29 09:54:19;;;;;;;7.30;4.20;;;;;;;-3.01;80.29;97430.29;109161;1272;25432;-79
2023/01/29 09:56:55;;;;;;;6.40;4.60;;;;;;;-3.13;80.04;97425.61;109115;1272;36319;-79
2023/01/29 09:59:30;;;;;;;6.90;4.90;;;;;;;-3.10;80.46;97421.81;109166;1271;22527;-79
2023/01/29 10:02:18;;;;;;;5.70;3.00;;;;;;;-3.18;79.78;97415.81;109171;1272;22526;-79
2023/01/29 10:05:03;;;;;;;8.60;5.40;;;;;;;-3.37;79.17;97414.40;109122;1272;23438;-79
2023/01/29 10:07:56;;;;;;;6.30;4.20;;;;;;;-3.37;79.83;97415.34;109160;1272;31211;-79
2023/01/29 10:10:36;;;;;;;4.70;3.30;;;;;;;-3.33;79.33;97408.65;109193;1272;22526;-79
2023/01/29 10:13:21;;;;;;;4.40;2.90;;;;;;;-3.34;79.20;97406.31;109178;1272;23075;-79
2023/01/29 10:16:09;;;;;;;9.60;4.90;;;;;;;-3.16;79.00;97400.17;109144;1272;23850;-79
2023/01/29 10:19:12;;;;;;;6.20;4.00;;;;;;;-2.94;79.11;97387.48;109149;1272;22559;-79
2023/01/29 10:22:06;;;;;;;6.80;4.50;;;;;;;-2.60;78.94;97382.33;108907;1272;22524;-79
2023/01/29 10:24:43;;;;;;;7.30;4.70;;;;;;;-2.27;78.92;97374.14;109134;1272;22633;-79
2023/01/29 10:27:18;;;;;;;7.00;4.00;;;;;;;-1.99;79.23;97364.73;109086;1269;40886;-79
2023/01/29 10:29:55;;;;;;;7.20;4.40;;;;;;;-2.04;77.11;97355.56;109154;1267;23382;-79
2023/01/29 10:32:29;;;;;;;6.80;4.40;;;;;;;-2.12;77.76;97357.18;109140;1272;22529;-79
2023/01/29 10:35:05;;;;;;;8.20;5.50;;;;;;;-2.00;78.11;97346.98;109156;1272;23226;-80
2023/01/29 10:37:40;;;;;;;8.40;4.70;;;;;;;-1.89;77.60;97345.35;109135;1272;22531;-80
2023/01/29 10:40:23;;;;;;;8.30;5.50;;;;;;;-1.95;77.20;97342.64;109174;1269;22537;-79
2023/01/29 10:43:04;;;;;;;7.00;5.10;;;;;;;-2.17;76.85;97342.84;109121;1270;24360;-80
2023/01/29 10:45:43;;;;;;;4.50;3.30;;;;;;;-2.21;77.24;97344.79;109171;1266;22530;-80
2023/01/29 10:48:40;;;;;;;7.20;5.00;;;;;;;-2.40;76.32;97349.48;109151;1272;24874;-80
2023/01/29 10:51:21;;;;;;;6.60;4.50;;;;;;;-2.63;75.90;97339.64;109140;1269;22585;-80
2023/01/29 10:54:09;;;;;;;9.70;5.90;;;;;;;-2.79;76.00;97338.88;109198;1272;22595;-80
2023/01/29 10:56:54;;;;;;;8.90;5.90;;;;;;;-2.75;76.73;97331.55;109082;1272;24422;-79
2023/01/29 10:59:49;;;;;;;9.20;5.90;;;;;;;-2.80;76.72;97324.52;109189;1272;25426;-79
2023/01/29 11:02:22;;;;;;;6.50;4.40;;;;;;;-2.88;76.53;97326.48;109141;1270;22521;-80
2023/01/29 11:04:54;;;;;;;7.60;4.50;;;;;;;-2.88;76.68;97319.21;109181;1268;25431;-80
2023/01/29 11:07:27;;;;;;;5.90;3.10;;;;;;;-2.92;76.20;97314.29;109149;1272;38694;-79
2023/01/29 11:10:08;;;;;;;7.30;4.80;;;;;;;-2.96;75.61;97305.27;109195;1271;22576;-79
2023/01/29 11:12:42;;;;;;;7.50;4.30;;;;;;;-2.92;75.76;97300.48;109243;1272;24431;-80
2023/01/29 11:15:23;;;;;;;6.60;4.80;;;;;;;-2.88;75.65;97288.06;109156;1272;22517;-79
2023/01/29 11:18:09;;;;;;;8.30;5.30;;;;;;;-2.86;75.39;97274.45;109177;1272;28041;-80
2023/01/29 11:20:42;;;;;;;8.00;5.30;;;;;;;-2.78;75.52;97264.80;109145;1272;22536;-79
2023/01/29 11:23:28;;;;;;;8.20;4.80;;;;;;;-2.73;76.17;97259.32;109100;1272;25074;-79
2023/01/29 11:26:03;;;;;;;6.50;4.50;;;;;;;-2.64;75.83;97246.95;109161;1272;22519;-79
2023/01/29 11:28:41;;;;;;;7.50;4.70;;;;;;;-2.70;76.15;97240.30;109201;1272;22560;-79
2023/01/29 11:31:27;;;;;;;8.40;4.90;;;;;;;-2.69;75.67;97228.22;109235;1272;23919;-80
2023/01/29 11:34:13;;;;;;;7.70;5.20;;;;;;;-2.68;75.53;97226.84;109191;1272;22561;-80
2023/01/29 11:36:47;;;;;;;10.50;6.00;;;;;;;-2.49;75.92;97222.35;109146;1272;23031;-80
2023/01/29 11:39:21;;;;;;;8.40;5.30;;;;;;;-2.32;75.51;97219.20;109090;1272;22553;-80
2023/01/29 11:41:57;;;;;;;9.20;5.70;;;;;;;-2.27;74.88;97224.66;109162;1266;22556;-80
2023/01/29 11:44:35;;;;;;;8.10;5.30;;;;;;;-2.30;75.23;97215.98;109189;1272;22527;-80
2023/01/29 11:47:22;;;;;;;10.70;6.80;;;;;;;-2.34;74.59;97214.02;109161;1272;22531;-80
2023/01/29 11:49:56;;;;;;;10.30;6.10;;;;;;;-2.44;74.24;97204.51;109169;1272;25268;-80
2023/01/29 11:52:37;;;;;;;16.30;8.40;;;;;;;-2.55;73.96;97204.77;109185;1266;22603;-79
2023/01/29 11:55:19;;;;;;;12.90;7.30;;;;;;;-2.62;73.68;97198.90;109202;1272;22547;-79
2023/01/29 11:58:02;;;;;;;22.90;10.40;;;;;;;-2.77;73.32;97196.98;109176;1272;22867;-78
2023/01/29 12:00:39;;;;;;;8.60;5.70;;;;;;;-2.86;73.55;97198.41;109210;1267;22526;-79
2023/01/29 12:03:22;;;;;;;12.10;6.90;;;;;;;-2.91;73.33;97194.00;109161;1272;24877;-79
2023/01/29 12:06:00;;;;;;;27.20;11.80;;;;;;;-2.89;74.06;97187.77;109183;1272;25081;-79
2023/01/29 12:08:37;;;;;;;10.70;6.10;;;;;;;-2.83;73.74;97188.85;109109;1272;22566;-79
2023/01/29 12:11:23;;;;;;;9.00;5.20;;;;;;;-2.81;73.45;97184.81;109152;1267;22665;-79
2023/01/29 12:13:58;;;;;;;15.60;9.50;;;;;;;-2.84;73.02;97186.35;109124;1272;22521;-79
2023/01/29 12:16:36;;;;;;;16.50;9.70;;;;;;;-2.89;72.96;97183.34;109125;1264;22523;-78
2023/01/29 12:19:17;;;;;;;10.20;6.50;;;;;;;-2.85;72.86;97178.16;109191;1269;22544;-78
2023/01/29 12:21:56;;;;;;;16.40;8.20;;;;;;;-2.65;72.62;97176.90;109175;1267;22636;-79